Time;durP1;ratioP1;P1;durP2;ratioP2;P2;SDS_P1;SDS_P2;PMS_P1;PMS_P2;Temp;Humidity;BMP_temperature;BMP_pressure;BME280_temperature;BME280_humidity;BME280_pressure;Samples;Min_cycle;Max_cycle;Signal;HPM_P1;HPM_P2
2022/06/01 00:01:00;;;;;;;1.67;0.80;;;;;;;;;;4915068;29;20035;-80
2022/06/01 00:03:28;;;;;;;1.45;0.68;;;;;;;;;;4968047;28;20108;-79
2022/06/01 00:05:54;;;;;;;2.22;0.90;;;;;;;;;;4982982;28;20032;-79
2022/06/01 00:08:20;;;;;;;1.77;0.70;;;;;;;;;;4967858;28;20036;-79
2022/06/01 00:10:46;;;;;;;3.78;0.82;;;;;;;;;;4987123;28;20028;-80
2022/06/01 00:13:12;;;;;;;1.88;0.52;;;;;;;;;;4939621;28;20054;-79
2022/06/01 00:15:37;;;;;;;1.88;0.77;;;;;;;;;;4955224;28;20527;-78
2022/06/01 00:18:03;;;;;;;2.38;0.93;;;;;;;;;;4955813;28;20045;-79
2022/06/01 00:20:28;;;;;;;1.90;1.05;;;;;;;;;;4952074;28;20024;-79
2022/06/01 00:22:54;;;;;;;1.98;0.70;;;;;;;;;;5020102;28;20061;-79
2022/06/01 00:25:19;;;;;;;2.60;0.82;;;;;;;;;;4952205;29;20387;-79
2022/06/01 00:27:45;;;;;;;1.80;1.02;;;;;;;;;;5026194;28;20049;-79
2022/06/01 00:30:12;;;;;;;1.95;1.15;;;;;;;;;;5033006;28;20033;-79
2022/06/01 00:32:38;;;;;;;1.85;1.02;;;;;;;;;;5033499;28;20099;-79
2022/06/01 00:35:04;;;;;;;1.75;1.00;;;;;;;;;;5000743;28;20029;-79
2022/06/01 00:37:29;;;;;;;2.55;1.05;;;;;;;;;;5033360;28;20033;-79
2022/06/01 00:39:55;;;;;;;3.05;1.20;;;;;;;;;;5016732;28;20040;-79
2022/06/01 00:42:23;;;;;;;2.03;0.80;;;;;;;;;;5016837;28;20038;-79
2022/06/01 00:44:48;;;;;;;1.85;1.00;;;;;;;;;;4999162;28;20028;-79
2022/06/01 00:47:17;;;;;;;1.60;0.80;;;;;;;;;;5007838;28;20096;-79
2022/06/01 00:50:29;;;;;;;1.55;0.90;;;;;;;;;;4935583;28;20043;-79
2022/06/01 00:53:01;;;;;;;1.92;0.88;;;;;;;;;;4939370;29;20049;-80
2022/06/01 00:55:34;;;;;;;1.45;0.80;;;;;;;;;;4920124;28;20110;-79
2022/06/01 00:58:04;;;;;;;1.92;0.90;;;;;;;;;;4950692;28;20035;-80
2022/06/01 01:00:32;;;;;;;1.45;0.80;;;;;;;;;;4919269;29;20027;-80
2022/06/01 01:03:00;;;;;;;1.83;1.00;;;;;;;;;;4935914;29;20047;-79
2022/06/01 01:05:27;;;;;;;2.17;1.00;;;;;;;;;;4935588;29;20121;-79
2022/06/01 01:07:53;;;;;;;3.03;1.00;;;;;;;;;;5002980;28;20494;-79
2022/06/01 01:10:19;;;;;;;1.52;0.70;;;;;;;;;;4920092;28;20089;-79
2022/06/01 01:12:56;;;;;;;2.15;1.23;;;;;;;;;;4930227;28;20035;-79
2022/06/01 01:15:23;;;;;;;2.05;1.05;;;;;;;;;;4992764;28;20498;-79
2022/06/01 01:17:48;;;;;;;2.60;1.23;;;;;;;;;;4998629;28;20034;-79
2022/06/01 01:20:14;;;;;;;1.77;0.82;;;;;;;;;;4984275;28;20039;-79
2022/06/01 01:22:47;;;;;;;2.03;0.95;;;;;;;;;;4935287;28;20031;-79
2022/06/01 01:25:28;;;;;;;1.75;0.88;;;;;;;;;;5019046;28;20482;-78
2022/06/01 01:27:56;;;;;;;1.83;0.80;;;;;;;;;;5029942;28;20411;-79
2022/06/01 01:30:29;;;;;;;2.53;1.58;;;;;;;;;;5016078;28;20130;-79
2022/06/01 01:32:55;;;;;;;2.45;0.90;;;;;;;;;;5016107;28;20034;-79
2022/06/01 01:35:20;;;;;;;2.92;0.98;;;;;;;;;;5015681;28;20079;-79
2022/06/01 01:37:47;;;;;;;1.92;0.95;;;;;;;;;;5031964;28;20416;-79
2022/06/01 01:40:12;;;;;;;2.33;0.95;;;;;;;;;;4999693;28;20045;-78
2022/06/01 01:42:39;;;;;;;2.72;1.40;;;;;;;;;;5014988;28;20541;-78
2022/06/01 01:45:13;;;;;;;2.08;1.05;;;;;;;;;;5003903;28;20118;-78
2022/06/01 01:47:39;;;;;;;3.50;1.17;;;;;;;;;;4998833;28;20048;-79
2022/06/01 01:50:10;;;;;;;1.98;0.93;;;;;;;;;;4965815;28;20032;-78
2022/06/01 01:52:36;;;;;;;2.78;1.20;;;;;;;;;;4965976;28;20036;-79
2022/06/01 01:55:04;;;;;;;2.50;1.00;;;;;;;;;;4998472;28;20073;-79
2022/06/01 01:57:53;;;;;;;2.13;0.90;;;;;;;;;;4930798;29;20038;-79
2022/06/01 02:00:23;;;;;;;2.40;1.10;;;;;;;;;;4931655;29;20525;-79
2022/06/01 02:02:54;;;;;;;1.77;0.90;;;;;;;;;;4950384;29;20039;-79
2022/06/01 02:08:25;;;;;;;2.53;0.95;;;;;;;;;;4951596;28;20039;-79
2022/06/01 02:13:38;;;;;;;1.40;0.95;;;;;;;;;;5024116;28;20370;-78
2022/06/01 02:16:04;;;;;;;1.40;0.80;;;;;;;;;;5021180;28;20096;-79
2022/06/01 02:18:38;;;;;;;2.70;0.90;;;;;;;;;;5004572;28;20043;-79
2022/06/01 02:21:14;;;;;;;1.83;0.77;;;;;;;;;;5012384;28;20039;-79
2022/06/01 02:23:40;;;;;;;2.53;0.80;;;;;;;;;;4902686;28;20129;-79
2022/06/01 02:26:06;;;;;;;3.03;1.17;;;;;;;;;;4918249;29;20110;-79
2022/06/01 02:28:31;;;;;;;1.95;1.05;;;;;;;;;;4918273;28;20065;-79
2022/06/01 02:30:56;;;;;;;1.45;0.80;;;;;;;;;;4918709;28;20078;-79
2022/06/01 02:33:28;;;;;;;2.78;1.10;;;;;;;;;;4918411;29;20047;-79
2022/06/01 02:35:54;;;;;;;2.30;1.17;;;;;;;;;;4934856;29;20035;-79
2022/06/01 02:38:22;;;;;;;2.78;0.85;;;;;;;;;;4934377;28;20263;-79
2022/06/01 02:40:48;;;;;;;2.50;1.00;;;;;;;;;;4934152;28;20054;-79
2022/06/01 02:43:13;;;;;;;3.15;1.23;;;;;;;;;;4918187;28;20039;-79
2022/06/01 02:45:39;;;;;;;1.70;0.65;;;;;;;;;;4914709;29;20055;-79
2022/06/01 02:48:05;;;;;;;2.80;0.90;;;;;;;;;;4996111;28;20070;-79
2022/06/01 02:50:32;;;;;;;1.58;0.80;;;;;;;;;;4917932;28;20074;-79
2022/06/01 02:52:58;;;;;;;2.88;1.20;;;;;;;;;;4934020;28;20035;-78
2022/06/01 02:55:23;;;;;;;2.42;0.70;;;;;;;;;;4918047;28;20039;-79
2022/06/01 02:57:50;;;;;;;1.58;0.70;;;;;;;;;;4917702;28;20050;-79
2022/06/01 03:00:21;;;;;;;2.97;1.02;;;;;;;;;;4950116;28;20040;-79
2022/06/01 03:02:53;;;;;;;1.88;1.10;;;;;;;;;;4949998;28;20035;-79
2022/06/01 03:05:22;;;;;;;2.92;1.05;;;;;;;;;;4949936;28;20032;-79
2022/06/01 03:07:47;;;;;;;2.63;0.95;;;;;;;;;;4999806;28;20028;-79
2022/06/01 03:10:13;;;;;;;2.05;0.82;;;;;;;;;;4932746;29;20113;-78
2022/06/01 03:12:39;;;;;;;2.75;1.10;;;;;;;;;;4949454;28;20628;-79
2022/06/01 03:15:08;;;;;;;3.92;0.80;;;;;;;;;;4952565;28;20061;-79
2022/06/01 03:17:34;;;;;;;2.47;0.80;;;;;;;;;;4952547;28;20027;-79
2022/06/01 03:20:00;;;;;;;1.67;0.63;;;;;;;;;;4952315;28;20488;-79
2022/06/01 03:22:25;;;;;;;1.90;0.90;;;;;;;;;;4917463;29;20039;-79
2022/06/01 03:24:51;;;;;;;2.08;0.90;;;;;;;;;;4916305;29;20494;-79
2022/06/01 03:27:17;;;;;;;2.38;1.00;;;;;;;;;;4916935;29;20035;-79
2022/06/01 03:29:43;;;;;;;2.58;0.93;;;;;;;;;;4917106;28;20051;-79
2022/06/01 03:32:08;;;;;;;2.00;0.77;;;;;;;;;;4917668;28;20039;-78
2022/06/01 03:34:34;;;;;;;1.67;0.90;;;;;;;;;;4917026;29;20047;-79
2022/06/01 03:36:59;;;;;;;2.20;0.80;;;;;;;;;;4919947;28;20035;-79
2022/06/01 03:39:27;;;;;;;2.30;1.00;;;;;;;;;;4920805;29;20046;-79
2022/06/01 03:41:52;;;;;;;2.03;0.80;;;;;;;;;;4937068;28;20055;-79
2022/06/01 03:47:03;;;;;;;2.78;0.98;;;;;;;;;;4926055;29;20039;-79
2022/06/01 03:49:28;;;;;;;3.05;1.10;;;;;;;;;;4921242;28;20047;-79
2022/06/01 03:51:54;;;;;;;2.75;0.80;;;;;;;;;;4904880;29;20460;-78
2022/06/01 03:54:20;;;;;;;2.15;0.95;;;;;;;;;;4920592;29;20074;-78
2022/06/01 03:56:46;;;;;;;3.40;1.05;;;;;;;;;;4920941;29;20063;-79
2022/06/01 03:59:12;;;;;;;2.03;1.00;;;;;;;;;;4920452;28;20124;-78
2022/06/01 04:01:37;;;;;;;2.05;0.95;;;;;;;;;;4917308;29;20046;-78
2022/06/01 04:04:03;;;;;;;2.03;1.00;;;;;;;;;;4984261;28;20047;-79
2022/06/01 04:06:30;;;;;;;2.38;0.90;;;;;;;;;;4984185;28;20036;-79
2022/06/01 04:08:56;;;;;;;2.63;0.90;;;;;;;;;;4983042;28;20106;-78
2022/06/01 04:11:21;;;;;;;2.47;1.15;;;;;;;;;;4997308;28;20436;-78
2022/06/01 04:13:47;;;;;;;2.65;0.93;;;;;;;;;;4955368;28;20042;-79
2022/06/01 04:16:12;;;;;;;2.58;0.80;;;;;;;;;;5023196;28;20061;-79
2022/06/01 04:18:38;;;;;;;2.25;1.20;;;;;;;;;;4955588;28;20031;-79
2022/06/01 04:21:03;;;;;;;3.63;1.00;;;;;;;;;;4948791;28;20028;-79
2022/06/01 04:23:29;;;;;;;2.22;0.73;;;;;;;;;;4932856;29;20546;-78
2022/06/01 04:25:55;;;;;;;2.53;0.90;;;;;;;;;;4933161;29;20035;-79
2022/06/01 04:28:20;;;;;;;2.90;1.67;;;;;;;;;;4983469;28;20429;-79
2022/06/01 04:30:46;;;;;;;2.55;1.00;;;;;;;;;;4968058;28;20071;-79
2022/06/01 04:33:12;;;;;;;3.40;0.90;;;;;;;;;;4983533;28;20391;-79
2022/06/01 04:35:37;;;;;;;2.17;0.90;;;;;;;;;;4983787;28;20078;-79
2022/06/01 04:38:15;;;;;;;2.25;1.10;;;;;;;;;;4983892;28;20043;-79
2022/06/01 04:40:46;;;;;;;3.20;1.00;;;;;;;;;;4978701;28;20444;-79
2022/06/01 04:43:13;;;;;;;3.07;1.30;;;;;;;;;;4982869;28;20039;-79
2022/06/01 04:45:38;;;;;;;2.88;0.82;;;;;;;;;;4993713;28;20035;-79
2022/06/01 04:48:04;;;;;;;1.50;0.60;;;;;;;;;;4935408;29;20410;-79
2022/06/01 04:50:29;;;;;;;2.15;0.82;;;;;;;;;;5002764;28;20050;-79
2022/06/01 04:52:55;;;;;;;3.30;1.10;;;;;;;;;;4935945;28;20173;-79
2022/06/01 04:55:22;;;;;;;3.20;1.45;;;;;;;;;;4986975;28;20039;-79
2022/06/01 04:57:48;;;;;;;2.53;0.90;;;;;;;;;;4903894;28;20513;-79
2022/06/01 05:00:14;;;;;;;3.08;1.33;;;;;;;;;;4936140;28;20047;-79
2022/06/01 05:02:40;;;;;;;2.47;1.00;;;;;;;;;;5002763;28;20031;-79
2022/06/01 05:05:06;;;;;;;2.45;1.33;;;;;;;;;;4935466;29;20038;-79
2022/06/01 05:07:31;;;;;;;2.60;1.27;;;;;;;;;;4935699;28;20528;-79
2022/06/01 05:09:56;;;;;;;1.95;0.98;;;;;;;;;;4951569;29;20035;-79
2022/06/01 05:12:22;;;;;;;2.53;1.17;;;;;;;;;;4949625;28;20043;-78
2022/06/01 05:14:48;;;;;;;3.88;1.30;;;;;;;;;;4953646;28;20433;-79
2022/06/01 05:17:13;;;;;;;1.75;1.00;;;;;;;;;;4951946;28;20041;-80
2022/06/01 05:19:38;;;;;;;3.20;1.10;;;;;;;;;;5019201;28;20038;-79
2022/06/01 05:22:04;;;;;;;3.35;1.20;;;;;;;;;;4921421;28;20512;-79
2022/06/01 05:24:29;;;;;;;3.70;1.20;;;;;;;;;;4919527;28;20039;-80
2022/06/01 05:26:55;;;;;;;2.35;1.20;;;;;;;;;;4918891;29;20110;-79
2022/06/01 05:29:22;;;;;;;3.30;1.05;;;;;;;;;;4919496;29;20047;-80
2022/06/01 05:31:48;;;;;;;2.63;0.90;;;;;;;;;;4935457;28;20647;-79
2022/06/01 05:34:14;;;;;;;4.32;1.00;;;;;;;;;;4919376;28;20039;-79
2022/06/01 05:36:39;;;;;;;2.60;1.20;;;;;;;;;;4935297;29;20039;-79
2022/06/01 05:39:05;;;;;;;2.38;1.10;;;;;;;;;;4919186;29;20039;-79
2022/06/01 05:41:30;;;;;;;4.55;1.30;;;;;;;;;;4919205;29;20067;-80
2022/06/01 05:43:56;;;;;;;6.32;1.98;;;;;;;;;;4919038;28;20051;-79
2022/06/01 05:46:22;;;;;;;3.10;1.20;;;;;;;;;;4919256;28;20035;-79
2022/06/01 05:48:47;;;;;;;3.38;1.45;;;;;;;;;;4919356;28;20047;-78
2022/06/01 05:51:13;;;;;;;4.43;1.30;;;;;;;;;;4985597;28;20405;-79
2022/06/01 05:53:39;;;;;;;7.70;1.48;;;;;;;;;;4919208;29;20039;-79
2022/06/01 05:56:04;;;;;;;13.70;2.85;;;;;;;;;;4919012;28;20115;-79
2022/06/01 05:58:30;;;;;;;11.90;2.10;;;;;;;;;;4902218;28;20039;-79
2022/06/01 06:00:59;;;;;;;7.78;1.73;;;;;;;;;;4908290;28;20035;-79
2022/06/01 06:03:25;;;;;;;5.72;1.52;;;;;;;;;;4934466;29;20505;-79
2022/06/01 06:08:34;;;;;;;4.93;1.33;;;;;;;;;;4934570;28;20034;-79
2022/06/01 06:11:00;;;;;;;5.90;1.63;;;;;;;;;;4922408;28;20038;-80
2022/06/01 06:13:25;;;;;;;6.28;1.85;;;;;;;;;;4953621;28;20088;-79
2022/06/01 06:15:51;;;;;;;5.25;1.83;;;;;;;;;;4937916;28;20118;-79
2022/06/01 06:18:16;;;;;;;7.25;1.83;;;;;;;;;;4953581;28;20117;-79
2022/06/01 06:20:45;;;;;;;5.75;1.20;;;;;;;;;;4950032;28;20043;-79
2022/06/01 06:23:11;;;;;;;6.88;1.20;;;;;;;;;;5001188;28;20043;-79
2022/06/01 06:25:37;;;;;;;3.55;1.30;;;;;;;;;;4934541;29;20033;-79
2022/06/01 06:28:04;;;;;;;3.67;0.80;;;;;;;;;;4934339;29;20054;-79
2022/06/01 06:30:30;;;;;;;4.85;1.17;;;;;;;;;;4934389;29;20039;-79
2022/06/01 06:32:55;;;;;;;4.30;1.00;;;;;;;;;;5000886;28;20035;-79
2022/06/01 06:35:20;;;;;;;5.25;0.85;;;;;;;;;;4918641;28;20145;-79
2022/06/01 06:37:46;;;;;;;4.35;1.52;;;;;;;;;;4918029;29;20043;-78
2022/06/01 06:40:12;;;;;;;4.68;0.90;;;;;;;;;;4918195;29;20032;-78
2022/06/01 06:42:37;;;;;;;30.80;3.60;;;;;;;;;;4917277;29;20054;-78
2022/06/01 06:45:03;;;;;;;15.52;2.08;;;;;;;;;;4918351;29;20047;-77
2022/06/01 06:47:32;;;;;;;16.92;2.63;;;;;;;;;;4933645;29;20409;-78
2022/06/01 06:49:57;;;;;;;12.95;2.85;;;;;;;;;;4918705;29;20127;-78
2022/06/01 06:52:23;;;;;;;13.13;2.13;;;;;;;;;;4933972;29;20130;-78
2022/06/01 06:54:48;;;;;;;6.63;1.50;;;;;;;;;;4984414;28;20044;-78
2022/06/01 06:57:14;;;;;;;7.80;1.40;;;;;;;;;;5016763;28;20050;-78
2022/06/01 06:59:39;;;;;;;13.63;2.45;;;;;;;;;;4934163;29;20039;-78
2022/06/01 07:02:05;;;;;;;7.05;1.00;;;;;;;;;;5000514;28;20047;-78
2022/06/01 07:04:30;;;;;;;4.75;0.70;;;;;;;;;;4934152;28;20043;-77
2022/06/01 07:06:57;;;;;;;4.45;0.85;;;;;;;;;;4933887;28;20417;-78
2022/06/01 07:09:23;;;;;;;7.03;2.50;;;;;;;;;;4949647;29;20039;-79
2022/06/01 07:11:48;;;;;;;6.78;2.10;;;;;;;;;;4943526;28;20475;-79
2022/06/01 07:14:14;;;;;;;8.98;1.88;;;;;;;;;;4952652;28;20035;-79
2022/06/01 07:16:39;;;;;;;7.70;2.53;;;;;;;;;;4952865;28;20062;-79
2022/06/01 07:19:06;;;;;;;5.78;2.17;;;;;;;;;;4952932;28;20115;-79
2022/06/01 07:21:31;;;;;;;8.63;2.30;;;;;;;;;;5016534;28;20122;-80
2022/06/01 07:23:57;;;;;;;7.80;2.28;;;;;;;;;;4949463;28;20656;-78
2022/06/01 07:26:25;;;;;;;9.55;2.28;;;;;;;;;;4948728;28;20043;-79
2022/06/01 07:28:50;;;;;;;10.93;2.63;;;;;;;;;;4917194;29;20047;-79
2022/06/01 07:31:17;;;;;;;6.93;1.70;;;;;;;;;;4917831;28;20438;-79
2022/06/01 07:33:43;;;;;;;5.97;2.22;;;;;;;;;;4933169;28;20092;-79
2022/06/01 07:36:09;;;;;;;4.82;1.58;;;;;;;;;;4933443;28;20391;-79
2022/06/01 07:44:07;;;;;;;7.88;2.20;;;;;;;;;;5006531;28;20031;-79
2022/06/01 07:46:36;;;;;;;8.35;1.70;;;;;;;;;;5032147;28;20062;-78
2022/06/01 07:49:02;;;;;;;5.78;2.45;;;;;;;;;;4917598;28;20485;-79
2022/06/01 07:51:27;;;;;;;5.50;1.70;;;;;;;;;;4917078;29;20047;-79
2022/06/01 07:53:53;;;;;;;4.82;1.67;;;;;;;;;;4917633;28;20397;-79
2022/06/01 07:56:18;;;;;;;6.40;1.30;;;;;;;;;;4933307;28;20100;-79
2022/06/01 07:58:44;;;;;;;4.53;1.50;;;;;;;;;;4917138;29;20117;-79
2022/06/01 08:01:10;;;;;;;6.18;1.80;;;;;;;;;;4944541;28;20037;-77
2022/06/01 08:03:35;;;;;;;3.72;1.50;;;;;;;;;;5013643;28;20421;-79
2022/06/01 08:06:01;;;;;;;5.65;1.88;;;;;;;;;;5013727;28;20117;-79
2022/06/01 08:08:27;;;;;;;8.48;1.92;;;;;;;;;;5013512;28;20042;-79
2022/06/01 08:10:52;;;;;;;6.75;1.60;;;;;;;;;;4986804;28;20047;-78
2022/06/01 08:13:18;;;;;;;3.92;1.00;;;;;;;;;;4951700;28;20046;-79
2022/06/01 08:15:45;;;;;;;5.07;1.33;;;;;;;;;;4936241;28;20035;-79
2022/06/01 08:18:12;;;;;;;4.00;1.23;;;;;;;;;;4952223;28;20088;-79
2022/06/01 08:20:38;;;;;;;3.05;0.80;;;;;;;;;;4948639;28;20122;-78
2022/06/01 08:23:04;;;;;;;4.55;1.10;;;;;;;;;;4951169;29;20470;-79
2022/06/01 08:25:30;;;;;;;4.65;1.52;;;;;;;;;;4935860;28;20165;-79
2022/06/01 08:27:55;;;;;;;2.67;1.10;;;;;;;;;;5047220;28;20053;-79
2022/06/01 08:30:23;;;;;;;3.83;1.15;;;;;;;;;;5031675;28;20269;-78
2022/06/01 08:32:48;;;;;;;4.35;0.90;;;;;;;;;;5032202;28;20040;-79
2022/06/01 08:35:16;;;;;;;2.67;1.02;;;;;;;;;;4999565;28;20033;-79
2022/06/01 08:37:42;;;;;;;4.10;1.30;;;;;;;;;;5032707;28;20407;-79
2022/06/01 08:40:07;;;;;;;3.10;0.80;;;;;;;;;;5000004;28;20041;-78
2022/06/01 08:42:33;;;;;;;3.30;0.80;;;;;;;;;;5032643;28;20408;-79
2022/06/01 08:45:04;;;;;;;2.45;1.13;;;;;;;;;;5024520;28;20034;-79
2022/06/01 08:47:35;;;;;;;3.60;1.02;;;;;;;;;;4941110;28;20170;-79
2022/06/01 08:50:25;;;;;;;3.38;1.52;;;;;;;;;;4983545;28;20231;-79
2022/06/01 08:52:51;;;;;;;5.05;1.17;;;;;;;;;;4987554;28;20118;-79
2022/06/01 08:55:17;;;;;;;7.15;2.03;;;;;;;;;;4983498;28;20126;-79
2022/06/01 08:57:46;;;;;;;4.07;1.67;;;;;;;;;;4982092;28;20043;-79
2022/06/01 09:00:16;;;;;;;6.72;2.03;;;;;;;;;;4999547;28;20036;-79
2022/06/01 09:03:23;;;;;;;7.20;3.35;;;;;;;;;;5014884;28;20039;-79
2022/06/01 09:05:56;;;;;;;5.55;3.17;;;;;;;;;;4867367;29;20050;-79
2022/06/01 09:08:40;;;;;;;7.22;3.72;;;;;;;;;;4870513;28;20056;-79
2022/06/01 09:11:09;;;;;;;7.85;4.05;;;;;;;;;;4915027;28;20046;-79
2022/06/01 09:13:42;;;;;;;7.93;4.18;;;;;;;;;;4954758;28;20500;-79
2022/06/01 09:16:14;;;;;;;7.03;4.15;;;;;;;;;;4938783;28;20043;-79
2022/06/01 09:18:45;;;;;;;6.43;4.15;;;;;;;;;;4938829;28;20042;-80
2022/06/01 09:24:09;;;;;;;8.85;4.28;;;;;;;;;;4942380;29;20480;-79
2022/06/01 09:26:34;;;;;;;6.90;3.60;;;;;;;;;;4986333;28;20037;-79
2022/06/01 09:29:02;;;;;;;8.38;4.28;;;;;;;;;;5032006;28;20415;-79
2022/06/01 09:31:38;;;;;;;6.82;3.63;;;;;;;;;;5015464;28;20128;-80
2022/06/01 09:34:28;;;;;;;6.93;3.47;;;;;;;;;;5031204;28;20061;-80
2022/06/01 09:37:01;;;;;;;6.10;3.20;;;;;;;;;;5015671;28;20045;-79
2022/06/01 09:39:27;;;;;;;5.18;3.00;;;;;;;;;;5033257;28;20514;-81
2022/06/01 09:41:53;;;;;;;6.47;3.70;;;;;;;;;;5014680;28;20041;-80
2022/06/01 09:44:29;;;;;;;18.95;12.93;;;;;;;;;;5031594;28;20112;-80
2022/06/01 09:46:58;;;;;;;10.63;6.80;;;;;;;;;;4998922;28;20043;-80
2022/06/01 09:49:27;;;;;;;9.50;4.60;;;;;;;;;;4997374;28;20509;-80
2022/06/01 09:52:12;;;;;;;3.88;2.40;;;;;;;;;;4932710;29;20047;-80
2022/06/01 09:54:42;;;;;;;4.43;2.17;;;;;;;;;;4997699;28;20067;-80
2022/06/01 09:57:33;;;;;;;5.22;1.90;;;;;;;;;;4997377;28;20085;-80
2022/06/01 10:08:29;;;;;;;3.25;1.55;;;;;;;;;;4937296;29;20039;-79
2022/06/01 10:11:02;;;;;;;4.10;1.30;;;;;;;;;;4937080;28;20039;-80
2022/06/01 10:13:36;;;;;;;2.97;0.90;;;;;;;;;;4953460;28;20039;-80
2022/06/01 10:16:16;;;;;;;4.82;1.23;;;;;;;;;;5021005;28;20041;-79
2022/06/01 10:18:42;;;;;;;2.38;0.90;;;;;;;;;;4969787;28;20031;-80
2022/06/01 10:21:11;;;;;;;3.30;0.80;;;;;;;;;;5011254;28;20043;-79
2022/06/01 10:23:46;;;;;;;2.97;1.38;;;;;;;;;;4918829;28;20160;-80
2022/06/01 10:26:18;;;;;;;2.55;1.10;;;;;;;;;;4917396;29;20040;-79
2022/06/01 10:28:46;;;;;;;4.65;0.60;;;;;;;;;;4996709;28;20048;-80
2022/06/01 10:32:04;;;;;;;5.93;1.13;;;;;;;;;;4997294;28;20071;-80
2022/06/01 10:34:54;;;;;;;3.15;1.10;;;;;;;;;;4939154;28;20095;-80
2022/06/01 10:37:52;;;;;;;4.68;1.00;;;;;;;;;;4987883;28;20039;-80
2022/06/01 10:40:20;;;;;;;2.72;0.80;;;;;;;;;;4943811;28;20043;-80
2022/06/01 10:43:38;;;;;;;4.03;0.80;;;;;;;;;;4996840;28;20040;-80
2022/06/01 10:46:23;;;;;;;4.75;1.10;;;;;;;;;;4991279;28;20044;-80
2022/06/01 10:49:26;;;;;;;3.05;0.80;;;;;;;;;;4951190;28;20116;-77
2022/06/01 10:52:20;;;;;;;3.33;0.65;;;;;;;;;;4913827;28;20051;-77
2022/06/01 10:54:59;;;;;;;1.58;0.68;;;;;;;;;;4899022;29;20046;-80
2022/06/01 10:57:25;;;;;;;2.97;0.50;;;;;;;;;;4997261;28;20039;-81
2022/06/01 10:59:50;;;;;;;1.63;0.50;;;;;;;;;;4997059;28;20042;-80
2022/06/01 11:02:25;;;;;;;2.72;0.50;;;;;;;;;;5012235;28;20092;-80
2022/06/01 11:05:00;;;;;;;3.58;0.93;;;;;;;;;;4933846;28;20185;-80
2022/06/01 11:07:38;;;;;;;2.20;0.82;;;;;;;;;;5016624;28;20046;-80
2022/06/01 11:10:22;;;;;;;3.30;0.82;;;;;;;;;;4950106;28;20126;-80
2022/06/01 11:12:57;;;;;;;2.95;1.17;;;;;;;;;;4966076;28;20039;-79
2022/06/01 11:15:52;;;;;;;2.15;0.70;;;;;;;;;;4968836;28;20054;-80
2022/06/01 11:18:38;;;;;;;1.83;0.80;;;;;;;;;;4949306;28;20043;-80
2022/06/01 11:21:26;;;;;;;2.03;0.68;;;;;;;;;;5010904;28;20039;-79
2022/06/01 11:24:17;;;;;;;2.90;0.60;;;;;;;;;;4933713;28;20122;-80
2022/06/01 11:27:10;;;;;;;2.30;0.57;;;;;;;;;;4934663;29;20051;-80
2022/06/01 11:29:57;;;;;;;2.17;0.50;;;;;;;;;;4933069;28;20528;-80
2022/06/01 11:32:30;;;;;;;2.97;0.63;;;;;;;;;;4949544;28;20082;-80
2022/06/01 11:35:12;;;;;;;3.85;0.93;;;;;;;;;;4918078;28;20039;-80
2022/06/01 11:37:55;;;;;;;2.72;1.00;;;;;;;;;;4918258;28;20051;-80
2022/06/01 11:40:31;;;;;;;3.47;1.15;;;;;;;;;;4933586;28;20031;-77
2022/06/01 11:43:00;;;;;;;2.63;0.60;;;;;;;;;;4933413;28;20047;-80
2022/06/01 11:45:31;;;;;;;3.05;1.00;;;;;;;;;;4984209;28;20114;-80
2022/06/01 11:48:06;;;;;;;3.10;1.05;;;;;;;;;;4989833;28;20039;-80
2022/06/01 11:50:34;;;;;;;1.70;1.00;;;;;;;;;;4983314;28;20122;-80
2022/06/01 11:53:05;;;;;;;3.33;0.80;;;;;;;;;;4949742;28;20081;-80
2022/06/01 11:55:40;;;;;;;2.40;0.57;;;;;;;;;;4929461;28;20051;-80
2022/06/01 11:58:18;;;;;;;3.20;0.80;;;;;;;;;;4999698;28;20126;-80
2022/06/01 12:00:43;;;;;;;2.75;0.63;;;;;;;;;;5003097;28;20040;-80
2022/06/01 12:03:36;;;;;;;1.58;0.73;;;;;;;;;;4952567;28;20521;-80
2022/06/01 12:06:07;;;;;;;2.63;0.80;;;;;;;;;;4997218;28;20137;-80
2022/06/01 12:08:45;;;;;;;2.10;1.10;;;;;;;;;;4952431;28;20039;-80
2022/06/01 12:11:14;;;;;;;2.25;1.10;;;;;;;;;;4941214;28;20481;-80
2022/06/01 12:13:40;;;;;;;2.72;0.82;;;;;;;;;;5023474;28;20412;-80
2022/06/01 12:16:07;;;;;;;3.95;0.88;;;;;;;;;;4955767;28;20031;-80
2022/06/01 12:18:33;;;;;;;3.08;1.00;;;;;;;;;;4955823;28;20034;-79
2022/06/01 12:21:15;;;;;;;2.40;0.65;;;;;;;;;;4951308;28;20054;-79
2022/06/01 12:29:35;;;;;;;1.80;0.60;;;;;;;;;;5017056;28;20052;-80
2022/06/01 12:32:01;;;;;;;1.45;0.60;;;;;;;;;;5001304;28;20036;-79
2022/06/01 12:34:28;;;;;;;1.35;0.60;;;;;;;;;;5000372;28;20041;-79
2022/06/01 12:37:08;;;;;;;1.23;0.50;;;;;;;;;;5017351;28;20108;-79
2022/06/01 12:39:40;;;;;;;2.30;0.60;;;;;;;;;;5017077;28;20381;-79
2022/06/01 12:42:19;;;;;;;1.33;0.70;;;;;;;;;;5034561;28;20033;-80
2022/06/01 12:44:46;;;;;;;3.25;1.00;;;;;;;;;;5003089;28;20039;-79
2022/06/01 12:47:58;;;;;;;2.38;1.00;;;;;;;;;;5021381;28;20089;-79
2022/06/01 12:50:24;;;;;;;2.63;0.88;;;;;;;;;;4933257;29;20135;-79
2022/06/01 12:53:10;;;;;;;6.97;1.27;;;;;;;;;;4999590;28;20115;-79
2022/06/01 12:55:36;;;;;;;3.47;1.17;;;;;;;;;;5031096;28;20043;-79
2022/06/01 12:58:06;;;;;;;2.72;1.10;;;;;;;;;;4983330;28;20394;-79
2022/06/01 13:00:32;;;;;;;3.10;1.17;;;;;;;;;;5031193;28;20101;-80
2022/06/01 13:02:58;;;;;;;3.08;0.93;;;;;;;;;;4935579;28;20035;-77
2022/06/01 13:05:25;;;;;;;7.03;1.45;;;;;;;;;;5018477;28;20035;-79
2022/06/01 13:07:57;;;;;;;2.22;1.20;;;;;;;;;;4935922;28;20035;-79
2022/06/01 13:10:25;;;;;;;2.90;1.30;;;;;;;;;;4935788;28;20035;-79
2022/06/01 13:13:07;;;;;;;4.15;1.20;;;;;;;;;;4939150;28;20569;-80
2022/06/01 13:15:33;;;;;;;1.73;1.02;;;;;;;;;;5023187;28;20196;-79
2022/06/01 13:18:00;;;;;;;2.17;0.95;;;;;;;;;;5022136;28;20567;-80
2022/06/01 13:20:46;;;;;;;2.90;0.80;;;;;;;;;;5018184;28;20063;-79
2022/06/01 13:23:35;;;;;;;2.42;0.82;;;;;;;;;;5018485;28;20089;-80
2022/06/01 13:26:03;;;;;;;2.67;1.00;;;;;;;;;;4935422;29;20071;-81
2022/06/01 13:28:29;;;;;;;2.65;0.90;;;;;;;;;;4918855;28;20035;-80
2022/06/01 13:30:56;;;;;;;2.58;0.93;;;;;;;;;;4919037;29;20432;-80
2022/06/01 13:33:42;;;;;;;4.15;1.20;;;;;;;;;;4934127;29;20497;-80
2022/06/01 13:36:09;;;;;;;3.10;0.77;;;;;;;;;;4916800;28;20048;-80
2022/06/01 13:38:47;;;;;;;1.38;0.50;;;;;;;;;;4915910;29;20506;-80
2022/06/01 13:41:25;;;;;;;4.70;0.70;;;;;;;;;;4916171;29;20040;-80
2022/06/01 13:43:52;;;;;;;4.82;0.75;;;;;;;;;;4916063;28;20052;-80
2022/06/01 13:46:28;;;;;;;5.07;0.95;;;;;;;;;;4945484;28;20131;-80
2022/06/01 13:48:55;;;;;;;3.80;0.90;;;;;;;;;;4934640;28;20054;-80
2022/06/01 13:51:25;;;;;;;3.80;0.90;;;;;;;;;;4918783;29;20031;-79
2022/06/01 13:53:51;;;;;;;1.65;0.75;;;;;;;;;;4935313;28;20122;-79
2022/06/01 13:56:21;;;;;;;1.67;0.60;;;;;;;;;;4919340;28;20062;-80
2022/06/01 13:58:53;;;;;;;2.65;0.95;;;;;;;;;;4935054;28;20070;-79
2022/06/01 14:01:43;;;;;;;3.63;0.83;;;;;;;;;;4944630;28;20039;-79
2022/06/01 14:04:27;;;;;;;2.90;0.45;;;;;;;;;;4915962;28;20082;-80
2022/06/01 14:07:13;;;;;;;3.20;0.85;;;;;;;;;;4982824;28;20043;-79
2022/06/01 14:09:59;;;;;;;8.88;5.50;;;;;;;;;;4934717;28;20035;-80
2022/06/01 14:12:24;;;;;;;9.80;4.90;;;;;;;;;;4948545;28;20038;-79
2022/06/01 14:14:52;;;;;;;13.23;6.18;;;;;;;;;;4938039;28;20039;-79
2022/06/01 14:17:17;;;;;;;10.65;5.70;;;;;;;;;;5006215;28;20032;-80
2022/06/01 14:19:43;;;;;;;8.82;4.07;;;;;;;;;;4917900;28;20524;-79
2022/06/01 14:22:10;;;;;;;6.30;3.35;;;;;;;;;;4918559;29;20118;-79
2022/06/01 14:30:05;;;;;;;4.63;1.65;;;;;;;;;;4997806;28;20043;-79
2022/06/01 14:32:31;;;;;;;2.40;1.38;;;;;;;;;;4918779;28;20035;-79
2022/06/01 14:34:56;;;;;;;2.90;1.10;;;;;;;;;;4934255;28;20452;-78
2022/06/01 14:37:22;;;;;;;3.13;1.15;;;;;;;;;;4950206;29;20047;-80
2022/06/01 14:39:47;;;;;;;2.28;1.00;;;;;;;;;;4934085;28;20039;-79
2022/06/01 14:42:13;;;;;;;3.00;0.73;;;;;;;;;;4966224;28;20425;-79
2022/06/01 14:44:38;;;;;;;3.75;0.88;;;;;;;;;;4936185;28;20050;-79
2022/06/01 14:47:04;;;;;;;2.78;0.90;;;;;;;;;;4943184;29;20040;-79
2022/06/01 14:49:29;;;;;;;2.33;0.95;;;;;;;;;;4986799;28;20031;-79
2022/06/01 14:51:57;;;;;;;2.60;0.80;;;;;;;;;;4917588;29;20046;-79
2022/06/01 14:54:23;;;;;;;3.33;0.80;;;;;;;;;;4933810;28;20065;-79
2022/06/01 14:56:49;;;;;;;3.60;1.10;;;;;;;;;;4983728;28;20502;-79
2022/06/01 14:59:14;;;;;;;3.58;1.27;;;;;;;;;;4933299;28;20037;-79
2022/06/01 15:01:47;;;;;;;3.35;1.02;;;;;;;;;;4930695;29;20047;-78
2022/06/01 15:04:15;;;;;;;1.27;0.60;;;;;;;;;;4946379;28;20036;-79
2022/06/01 15:06:40;;;;;;;2.08;0.70;;;;;;;;;;4946813;28;20036;-79
2022/06/01 15:09:06;;;;;;;3.28;0.60;;;;;;;;;;4997456;28;20041;-79
2022/06/01 15:11:33;;;;;;;2.78;0.75;;;;;;;;;;4941429;28;20027;-78
2022/06/01 15:13:59;;;;;;;4.68;0.75;;;;;;;;;;4953096;28;20042;-78
2022/06/01 15:16:24;;;;;;;3.38;0.80;;;;;;;;;;4937203;28;20043;-78
2022/06/01 15:18:53;;;;;;;3.33;0.82;;;;;;;;;;4953006;28;20112;-78
2022/06/01 15:21:19;;;;;;;3.38;0.85;;;;;;;;;;4927175;28;20050;-79
2022/06/01 15:23:44;;;;;;;2.05;0.40;;;;;;;;;;4934067;28;20032;-78
2022/06/01 15:26:10;;;;;;;3.55;0.60;;;;;;;;;;4917798;29;20485;-79
2022/06/01 15:28:37;;;;;;;4.03;1.00;;;;;;;;;;4933339;28;20048;-79
2022/06/01 15:39:30;;;;;;;7.00;1.00;;;;;;;;;;4926074;28;20032;-79
2022/06/01 15:41:57;;;;;;;44.13;32.28;;;;;;;;;;4938963;29;20042;-78
2022/06/01 15:44:22;;;;;;;65.40;42.55;;;;;;;;;;4920858;28;20536;-78
2022/06/01 15:46:48;;;;;;;61.65;42.88;;;;;;;;;;5001618;28;20051;-79